sensor_id;sensor_type;location;lat;lon;timestamp;pressure;altitude;pressure_sealevel;temperature;humidity
13593;BME280;6867;50.998;4.250;2023-03-24T00:01:19;99586.19;;;15.50;75.62
13593;BME280;6867;50.998;4.250;2023-03-24T00:03:46;99586.19;;;15.55;74.94
13593;BME280;6867;50.998;4.250;2023-03-24T00:06:16;99594.84;;;15.47;76.02
13593;BME280;6867;50.998;4.250;2023-03-24T00:08:48;99592.66;;;15.33;76.76
13593;BME280;6867;50.998;4.250;2023-03-24T00:11:15;99590.75;;;15.29;76.40
13593;BME280;6867;50.998;4.250;2023-03-24T00:13:47;99592.13;;;15.26;76.76
13593;BME280;6867;50.998;4.250;2023-03-24T00:16:15;99585.91;;;15.36;76.91
13593;BME280;6867;50.998;4.250;2023-03-24T00:18:44;99583.44;;;15.19;77.58
13593;BME280;6867;50.998;4.250;2023-03-24T00:21:14;99582.09;;;15.22;77.27
13593;BME280;6867;50.998;4.250;2023-03-24T00:23:42;99588.03;;;15.18;77.98
13593;BME280;6867;50.998;4.250;2023-03-24T00:26:13;99600.19;;;15.11;79.13
13593;BME280;6867;50.998;4.250;2023-03-24T00:28:42;99595.88;;;15.20;78.43
13593;BME280;6867;50.998;4.250;2023-03-24T00:31:10;99570.47;;;15.26;78.22
13593;BME280;6867;50.998;4.250;2023-03-24T00:33:40;99582.03;;;15.06;78.28
13593;BME280;6867;50.998;4.250;2023-03-24T00:36:09;99569.88;;;15.09;78.01
13593;BME280;6867;50.998;4.250;2023-03-24T00:38:38;99573.69;;;15.18;78.24
13593;BME280;6867;50.998;4.250;2023-03-24T00:41:06;99571.53;;;15.20;77.78
13593;BME280;6867;50.998;4.250;2023-03-24T00:43:36;99570.47;;;15.41;77.23
13593;BME280;6867;50.998;4.250;2023-03-24T00:46:06;99568.84;;;15.40;76.77
13593;BME280;6867;50.998;4.250;2023-03-24T00:48:36;99556.66;;;15.38;76.56
13593;BME280;6867;50.998;4.250;2023-03-24T00:51:04;99542.88;;;15.39;76.28
13593;BME280;6867;50.998;4.250;2023-03-24T00:53:32;99560.47;;;15.42;76.34
13593;BME280;6867;50.998;4.250;2023-03-24T00:56:02;99552.66;;;15.66;75.69
13593;BME280;6867;50.998;4.250;2023-03-24T00:58:29;99537.50;;;15.60;75.27
13593;BME280;6867;50.998;4.250;2023-03-24T01:01:00;99541.81;;;15.56;75.56
13593;BME280;6867;50.998;4.250;2023-03-24T01:03:27;99532.38;;;15.74;74.85
13593;BME280;6867;50.998;4.250;2023-03-24T01:05:53;99539.09;;;15.51;75.00
13593;BME280;6867;50.998;4.250;2023-03-24T01:08:22;99544.56;;;15.76;74.68
13593;BME280;6867;50.998;4.250;2023-03-24T01:10:51;99527.47;;;15.45;75.41
13593;BME280;6867;50.998;4.250;2023-03-24T01:13:19;99533.94;;;15.54;75.31
13593;BME280;6867;50.998;4.250;2023-03-24T01:15:46;99554.00;;;15.63;75.32
13593;BME280;6867;50.998;4.250;2023-03-24T01:18:15;99554.81;;;15.43;75.77
13593;BME280;6867;50.998;4.250;2023-03-24T01:20:43;99542.34;;;15.48;76.10
13593;BME280;6867;50.998;4.250;2023-03-24T01:23:12;99543.19;;;15.74;75.28
13593;BME280;6867;50.998;4.250;2023-03-24T01:25:40;99559.69;;;15.67;75.76
13593;BME280;6867;50.998;4.250;2023-03-24T01:28:10;99556.44;;;15.75;75.23
13593;BME280;6867;50.998;4.250;2023-03-24T01:30:37;99553.22;;;15.68;75.23
13593;BME280;6867;50.998;4.250;2023-03-24T01:33:05;99559.97;;;15.65;75.19
13593;BME280;6867;50.998;4.250;2023-03-24T01:35:34;99563.47;;;15.61;75.74
13593;BME280;6867;50.998;4.250;2023-03-24T01:38:04;99561.28;;;15.53;75.96
13593;BME280;6867;50.998;4.250;2023-03-24T01:40:33;99566.19;;;15.86;75.45
13593;BME280;6867;50.998;4.250;2023-03-24T01:43:00;99545.63;;;15.70;74.84
13593;BME280;6867;50.998;4.250;2023-03-24T01:45:50;99555.38;;;15.71;75.28
13593;BME280;6867;50.998;4.250;2023-03-24T01:48:23;99563.25;;;15.67;75.29
13593;BME280;6867;50.998;4.250;2023-03-24T01:50:54;99560.25;;;15.74;75.35
13593;BME280;6867;50.998;4.250;2023-03-24T01:53:23;99577.00;;;15.61;75.02
13593;BME280;6867;50.998;4.250;2023-03-24T01:55:50;99643.00;;;15.39;77.26
13593;BME280;6867;50.998;4.250;2023-03-24T01:58:18;99652.25;;;14.86;78.55
13593;BME280;6867;50.998;4.250;2023-03-24T02:00:45;99661.16;;;14.76;79.26
13593;BME280;6867;50.998;4.250;2023-03-24T02:03:16;99670.06;;;14.77;78.72
13593;BME280;6867;50.998;4.250;2023-03-24T02:05:46;99628.19;;;14.42;77.25
13593;BME280;6867;50.998;4.250;2023-03-24T02:08:21;99619.72;;;14.65;76.12
13593;BME280;6867;50.998;4.250;2023-03-24T02:10:51;99612.72;;;14.27;75.50
13593;BME280;6867;50.998;4.250;2023-03-24T02:13:20;99609.03;;;14.01;75.20
13593;BME280;6867;50.998;4.250;2023-03-24T02:15:54;99617.06;;;14.33;74.40
13593;BME280;6867;50.998;4.250;2023-03-24T02:18:28;99617.16;;;14.06;73.58
13593;BME280;6867;50.998;4.250;2023-03-24T02:21:35;99615.94;;;14.29;73.53
13593;BME280;6867;50.998;4.250;2023-03-24T02:27:20;99609.66;;;14.13;71.83
13593;BME280;6867;50.998;4.250;2023-03-24T02:30:18;99614.66;;;14.00;71.56
13593;BME280;6867;50.998;4.250;2023-03-24T02:36:06;99638.72;;;13.42;72.52
13593;BME280;6867;50.998;4.250;2023-03-24T02:41:40;99646.44;;;13.60;71.86
13593;BME280;6867;50.998;4.250;2023-03-24T02:44:13;99627.53;;;13.33;71.53
13593;BME280;6867;50.998;4.250;2023-03-24T02:46:46;99627.59;;;13.16;71.00
13593;BME280;6867;50.998;4.250;2023-03-24T02:49:21;99604.66;;;13.36;70.09
13593;BME280;6867;50.998;4.250;2023-03-24T02:51:57;99615.50;;;13.19;69.47
13593;BME280;6867;50.998;4.250;2023-03-24T02:54:30;99589.25;;;13.09;69.31
13593;BME280;6867;50.998;4.250;2023-03-24T02:57:04;99602.97;;;13.30;68.93
13593;BME280;6867;50.998;4.250;2023-03-24T02:59:33;99632.75;;;13.18;69.01
13593;BME280;6867;50.998;4.250;2023-03-24T03:02:04;99627.19;;;13.52;68.27
13593;BME280;6867;50.998;4.250;2023-03-24T03:04:37;99631.53;;;13.53;68.21
13593;BME280;6867;50.998;4.250;2023-03-24T03:07:07;99640.34;;;13.21;68.47
13593;BME280;6867;50.998;4.250;2023-03-24T03:09:38;99681.94;;;13.08;69.91
13593;BME280;6867;50.998;4.250;2023-03-24T03:12:10;99668.78;;;13.12;69.46
13593;BME280;6867;50.998;4.250;2023-03-24T03:14:40;99689.75;;;13.05;69.94
13593;BME280;6867;50.998;4.250;2023-03-24T03:17:12;99686.75;;;13.23;69.39
13593;BME280;6867;50.998;4.250;2023-03-24T03:19:43;99685.63;;;13.41;69.15
13593;BME280;6867;50.998;4.250;2023-03-24T03:22:15;99684.69;;;13.30;68.96
13593;BME280;6867;50.998;4.250;2023-03-24T03:24:47;99681.88;;;13.42;68.88
13593;BME280;6867;50.998;4.250;2023-03-24T03:27:21;99691.13;;;13.29;69.49
13593;BME280;6867;50.998;4.250;2023-03-24T03:29:54;99692.09;;;13.40;69.26
13593;BME280;6867;50.998;4.250;2023-03-24T03:32:27;99688.41;;;13.07;69.54
13593;BME280;6867;50.998;4.250;2023-03-24T03:35:00;99686.50;;;13.47;68.93
13593;BME280;6867;50.998;4.250;2023-03-24T03:37:35;99672.72;;;13.43;68.29
13593;BME280;6867;50.998;4.250;2023-03-24T03:40:10;99664.66;;;13.75;67.99
13593;BME280;6867;50.998;4.250;2023-03-24T03:42:40;99666.31;;;13.76;67.45
13593;BME280;6867;50.998;4.250;2023-03-24T03:45:09;99678.03;;;13.38;67.73
13593;BME280;6867;50.998;4.250;2023-03-24T03:47:36;99666.50;;;13.42;67.19
13593;BME280;6867;50.998;4.250;2023-03-24T03:50:06;99693.03;;;13.29;68.30
13593;BME280;6867;50.998;4.250;2023-03-24T03:52:34;99690.47;;;13.39;67.61
13593;BME280;6867;50.998;4.250;2023-03-24T03:55:02;99690.19;;;13.40;67.35
13593;BME280;6867;50.998;4.250;2023-03-24T03:57:30;99697.09;;;13.31;67.82
13593;BME280;6867;50.998;4.250;2023-03-24T04:00:03;99695.50;;;13.30;67.66
13593;BME280;6867;50.998;4.250;2023-03-24T04:02:42;99723.09;;;13.20;68.36
13593;BME280;6867;50.998;4.250;2023-03-24T04:05:20;99718.34;;;13.06;67.87
13593;BME280;6867;50.998;4.250;2023-03-24T04:08:04;99704.69;;;13.34;67.41
13593;BME280;6867;50.998;4.250;2023-03-24T04:10:45;99724.06;;;13.31;67.95
13593;BME280;6867;50.998;4.250;2023-03-24T04:13:21;99738.34;;;13.10;67.98
13593;BME280;6867;50.998;4.250;2023-03-24T04:15:54;99740.63;;;13.40;67.50
13593;BME280;6867;50.998;4.250;2023-03-24T04:18:44;99750.19;;;13.48;67.54
13593;BME280;6867;50.998;4.250;2023-03-24T04:21:30;99733.56;;;13.34;67.58
13593;BME280;6867;50.998;4.250;2023-03-24T04:24:14;99735.16;;;13.57;67.19
13593;BME280;6867;50.998;4.250;2023-03-24T04:26:48;99730.91;;;13.39;67.07
13593;BME280;6867;50.998;4.250;2023-03-24T04:29:19;99734.47;;;12.84;67.84
13593;BME280;6867;50.998;4.250;2023-03-24T04:31:59;99773.78;;;13.18;68.06
13593;BME280;6867;50.998;4.250;2023-03-24T04:34:30;99752.50;;;13.39;67.21
13593;BME280;6867;50.998;4.250;2023-03-24T04:37:00;99738.38;;;13.54;66.78
13593;BME280;6867;50.998;4.250;2023-03-24T04:39:33;99750.66;;;13.44;67.27
13593;BME280;6867;50.998;4.250;2023-03-24T04:42:05;99774.06;;;13.39;67.44
13593;BME280;6867;50.998;4.250;2023-03-24T04:44:34;99763.94;;;13.29;67.31
13593;BME280;6867;50.998;4.250;2023-03-24T04:47:04;99776.44;;;12.96;68.12
13593;BME280;6867;50.998;4.250;2023-03-24T04:49:36;99781.97;;;13.07;68.44
13593;BME280;6867;50.998;4.250;2023-03-24T04:52:08;99789.63;;;13.15;68.42
13593;BME280;6867;50.998;4.250;2023-03-24T04:54:35;99792.59;;;13.13;68.25
13593;BME280;6867;50.998;4.250;2023-03-24T04:57:02;99803.28;;;13.08;68.43
13593;BME280;6867;50.998;4.250;2023-03-24T04:59:30;99810.41;;;12.98;68.96
13593;BME280;6867;50.998;4.250;2023-03-24T05:01:58;99813.59;;;12.78;68.84
13593;BME280;6867;50.998;4.250;2023-03-24T05:04:27;99816.94;;;13.02;69.02
13593;BME280;6867;50.998;4.250;2023-03-24T05:06:55;99796.69;;;12.82;68.93
13593;BME280;6867;50.998;4.250;2023-03-24T05:09:23;99807.56;;;12.70;69.23
13593;BME280;6867;50.998;4.250;2023-03-24T05:11:50;99820.69;;;12.33;70.12
13593;BME280;6867;50.998;4.250;2023-03-24T05:14:18;99834.88;;;12.45;70.70
13593;BME280;6867;50.998;4.250;2023-03-24T05:16:45;99843.94;;;12.39;70.85
13593;BME280;6867;50.998;4.250;2023-03-24T05:19:11;99844.19;;;12.38;70.90
13593;BME280;6867;50.998;4.250;2023-03-24T05:21:40;99873.53;;;12.23;72.01
13593;BME280;6867;50.998;4.250;2023-03-24T05:24:07;99872.03;;;12.15;72.31
13593;BME280;6867;50.998;4.250;2023-03-24T05:26:34;99882.38;;;12.35;72.83
13593;BME280;6867;50.998;4.250;2023-03-24T05:29:10;99895.78;;;12.46;72.77
13593;BME280;6867;50.998;4.250;2023-03-24T05:31:36;99890.19;;;12.65;72.33
13593;BME280;6867;50.998;4.250;2023-03-24T05:34:03;99876.16;;;12.80;71.82
13593;BME280;6867;50.998;4.250;2023-03-24T05:36:30;99865.38;;;12.80;71.70
13593;BME280;6867;50.998;4.250;2023-03-24T05:38:58;99854.47;;;12.58;71.62
13593;BME280;6867;50.998;4.250;2023-03-24T05:41:25;99851.72;;;12.53;71.42
13593;BME280;6867;50.998;4.250;2023-03-24T05:43:52;99865.31;;;12.29;71.88
13593;BME280;6867;50.998;4.250;2023-03-24T05:46:19;99877.03;;;12.23;72.55
13593;BME280;6867;50.998;4.250;2023-03-24T05:48:45;99882.72;;;12.38;72.26
13593;BME280;6867;50.998;4.250;2023-03-24T05:51:12;99880.25;;;12.37;72.45
13593;BME280;6867;50.998;4.250;2023-03-24T05:53:39;99883.88;;;12.42;72.34
13593;BME280;6867;50.998;4.250;2023-03-24T05:56:08;99883.91;;;12.59;72.46
13593;BME280;6867;50.998;4.250;2023-03-24T05:58:36;99874.19;;;12.58;72.05
13593;BME280;6867;50.998;4.250;2023-03-24T06:01:06;99876.34;;;12.44;72.24
13593;BME280;6867;50.998;4.250;2023-03-24T06:03:32;99882.41;;;12.23;72.44
13593;BME280;6867;50.998;4.250;2023-03-24T06:06:04;99894.16;;;12.17;73.19
13593;BME280;6867;50.998;4.250;2023-03-24T06:08:30;99906.81;;;12.05;73.60
13593;BME280;6867;50.998;4.250;2023-03-24T06:10:58;99909.88;;;12.08;73.65
13593;BME280;6867;50.998;4.250;2023-03-24T06:13:28;99919.19;;;12.17;73.92
13593;BME280;6867;50.998;4.250;2023-03-24T06:15:56;99910.13;;;12.35;73.17
13593;BME280;6867;50.998;4.250;2023-03-24T06:18:24;99913.59;;;12.07;73.77
13593;BME280;6867;50.998;4.250;2023-03-24T06:20:52;99910.72;;;12.37;73.37
13593;BME280;6867;50.998;4.250;2023-03-24T06:23:27;99906.69;;;12.40;73.07
13593;BME280;6867;50.998;4.250;2023-03-24T06:25:55;99906.00;;;13.24;71.95
13593;BME280;6867;50.998;4.250;2023-03-24T06:28:24;99877.56;;;13.33;70.51
13593;BME280;6867;50.998;4.250;2023-03-24T06:30:56;99882.31;;;13.42;70.06
13593;BME280;6867;50.998;4.250;2023-03-24T06:33:23;99879.84;;;13.41;69.68
13593;BME280;6867;50.998;4.250;2023-03-24T06:35:51;99879.59;;;13.42;69.58
13593;BME280;6867;50.998;4.250;2023-03-24T06:38:18;99865.78;;;13.39;69.11
13593;BME280;6867;50.998;4.250;2023-03-24T06:40:46;99882.31;;;13.26;69.31
13593;BME280;6867;50.998;4.250;2023-03-24T06:43:13;99882.22;;;13.37;68.87
13593;BME280;6867;50.998;4.250;2023-03-24T06:45:40;99878.19;;;13.57;68.49
13593;BME280;6867;50.998;4.250;2023-03-24T06:48:08;99877.00;;;13.69;68.09
13593;BME280;6867;50.998;4.250;2023-03-24T06:50:35;99875.03;;;13.65;68.22
13593;BME280;6867;50.998;4.250;2023-03-24T06:53:02;99888.09;;;13.51;68.58
13593;BME280;6867;50.998;4.250;2023-03-24T06:55:29;99888.84;;;13.47;68.20
13593;BME280;6867;50.998;4.250;2023-03-24T06:57:56;99900.94;;;13.44;68.47
13593;BME280;6867;50.998;4.250;2023-03-24T07:00:22;99897.19;;;13.28;68.60
13593;BME280;6867;50.998;4.250;2023-03-24T07:02:50;99896.31;;;13.83;68.24
13593;BME280;6867;50.998;4.250;2023-03-24T07:05:18;99884.59;;;14.16;66.61
13593;BME280;6867;50.998;4.250;2023-03-24T07:07:44;99859.53;;;14.48;65.68
13593;BME280;6867;50.998;4.250;2023-03-24T07:10:12;99845.94;;;14.65;65.25
13593;BME280;6867;50.998;4.250;2023-03-24T07:12:39;99842.66;;;14.63;64.64
13593;BME280;6867;50.998;4.250;2023-03-24T07:15:07;99831.78;;;14.26;64.42
13593;BME280;6867;50.998;4.250;2023-03-24T07:17:33;99827.22;;;14.90;63.84
13593;BME280;6867;50.998;4.250;2023-03-24T07:20:00;99855.06;;;14.32;64.82
13593;BME280;6867;50.998;4.250;2023-03-24T07:22:31;99844.34;;;15.01;63.88
13593;BME280;6867;50.998;4.250;2023-03-24T07:24:59;99827.53;;;14.62;63.55
13593;BME280;6867;50.998;4.250;2023-03-24T07:27:29;99845.75;;;14.72;63.74
13593;BME280;6867;50.998;4.250;2023-03-24T07:29:57;99828.94;;;14.69;63.29
13593;BME280;6867;50.998;4.250;2023-03-24T07:32:23;99837.88;;;14.70;63.33
13593;BME280;6867;50.998;4.250;2023-03-24T07:34:50;99833.97;;;14.56;63.48
13593;BME280;6867;50.998;4.250;2023-03-24T07:37:17;99843.13;;;14.82;62.83
13593;BME280;6867;50.998;4.250;2023-03-24T07:39:45;99851.44;;;14.75;63.69
13593;BME280;6867;50.998;4.250;2023-03-24T07:42:12;99857.38;;;14.72;63.64
13593;BME280;6867;50.998;4.250;2023-03-24T07:44:39;99891.00;;;14.10;64.97
13593;BME280;6867;50.998;4.250;2023-03-24T07:47:06;99887.81;;;14.13;64.82
13593;BME280;6867;50.998;4.250;2023-03-24T07:49:32;99878.94;;;14.18;64.66
13593;BME280;6867;50.998;4.250;2023-03-24T07:51:59;99879.03;;;14.28;64.61
13593;BME280;6867;50.998;4.250;2023-03-24T07:54:30;99901.38;;;14.18;64.55
13593;BME280;6867;50.998;4.250;2023-03-24T07:56:59;99896.78;;;14.19;64.31
13593;BME280;6867;50.998;4.250;2023-03-24T07:59:26;99894.56;;;14.16;64.48
13593;BME280;6867;50.998;4.250;2023-03-24T08:01:53;99894.72;;;14.26;64.69
13593;BME280;6867;50.998;4.250;2023-03-24T08:04:19;99900.53;;;14.40;64.40
13593;BME280;6867;50.998;4.250;2023-03-24T08:06:46;99910.03;;;13.99;64.43
13593;BME280;6867;50.998;4.250;2023-03-24T08:09:13;99927.59;;;14.45;64.67
13593;BME280;6867;50.998;4.250;2023-03-24T08:11:40;99914.34;;;14.43;64.04
13593;BME280;6867;50.998;4.250;2023-03-24T08:14:08;99892.44;;;14.67;63.66
13593;BME280;6867;50.998;4.250;2023-03-24T08:16:35;99893.03;;;15.01;62.94
13593;BME280;6867;50.998;4.250;2023-03-24T08:19:03;99854.09;;;15.02;61.94
13593;BME280;6867;50.998;4.250;2023-03-24T08:21:30;99867.00;;;14.95;62.04
13593;BME280;6867;50.998;4.250;2023-03-24T08:23:57;99837.84;;;15.39;60.69
13593;BME280;6867;50.998;4.250;2023-03-24T08:26:24;99833.47;;;15.33;60.66
13593;BME280;6867;50.998;4.250;2023-03-24T08:28:51;99835.97;;;15.50;60.27
13593;BME280;6867;50.998;4.250;2023-03-24T08:31:20;99843.75;;;15.31;60.38
13593;BME280;6867;50.998;4.250;2023-03-24T08:33:46;99827.22;;;15.33;59.67
13593;BME280;6867;50.998;4.250;2023-03-24T08:36:13;99826.38;;;15.22;59.76
13593;BME280;6867;50.998;4.250;2023-03-24T08:38:40;99838.38;;;15.41;59.63
13593;BME280;6867;50.998;4.250;2023-03-24T08:41:06;99850.59;;;15.49;59.90
13593;BME280;6867;50.998;4.250;2023-03-24T08:43:34;99853.88;;;15.51;59.46
13593;BME280;6867;50.998;4.250;2023-03-24T08:46:02;99835.31;;;15.70;58.61
13593;BME280;6867;50.998;4.250;2023-03-24T08:48:30;99881.50;;;16.11;59.08
13593;BME280;6867;50.998;4.250;2023-03-24T08:50:57;99830.63;;;16.38;57.52
13593;BME280;6867;50.998;4.250;2023-03-24T08:53:23;99860.94;;;15.57;59.19
13593;BME280;6867;50.998;4.250;2023-03-24T08:55:50;99809.41;;;15.94;57.46
13593;BME280;6867;50.998;4.250;2023-03-24T08:58:18;99853.09;;;15.61;58.40
13593;BME280;6867;50.998;4.250;2023-03-24T09:00:46;99880.56;;;15.80;58.97
13593;BME280;6867;50.998;4.250;2023-03-24T09:03:16;99855.44;;;15.94;58.20
13593;BME280;6867;50.998;4.250;2023-03-24T09:05:47;99875.53;;;16.09;58.64
13593;BME280;6867;50.998;4.250;2023-03-24T09:08:17;99824.56;;;15.96;57.44
13593;BME280;6867;50.998;4.250;2023-03-24T09:10:44;99834.41;;;16.37;56.98
13593;BME280;6867;50.998;4.250;2023-03-24T09:13:12;99824.19;;;16.80;56.26
13593;BME280;6867;50.998;4.250;2023-03-24T09:15:39;99866.75;;;16.75;57.00
13593;BME280;6867;50.998;4.250;2023-03-24T09:18:06;99808.72;;;16.91;55.33
13593;BME280;6867;50.998;4.250;2023-03-24T09:20:33;99795.91;;;17.27;54.34
13593;BME280;6867;50.998;4.250;2023-03-24T09:23:01;99788.34;;;17.19;54.24
13593;BME280;6867;50.998;4.250;2023-03-24T09:25:28;99789.44;;;17.08;54.23
13593;BME280;6867;50.998;4.250;2023-03-24T09:27:55;99776.66;;;17.24;53.52
13593;BME280;6867;50.998;4.250;2023-03-24T09:30:21;99763.41;;;16.91;53.93
13593;BME280;6867;50.998;4.250;2023-03-24T09:32:48;99755.25;;;17.07;53.22
13593;BME280;6867;50.998;4.250;2023-03-24T09:35:15;99800.88;;;16.74;54.82
13593;BME280;6867;50.998;4.250;2023-03-24T09:37:42;99816.56;;;17.08;54.68
13593;BME280;6867;50.998;4.250;2023-03-24T09:40:16;99810.56;;;17.21;54.42
13593;BME280;6867;50.998;4.250;2023-03-24T09:42:43;99839.34;;;17.12;54.81
13593;BME280;6867;50.998;4.250;2023-03-24T09:45:16;99790.53;;;16.91;54.01
13593;BME280;6867;50.998;4.250;2023-03-24T09:47:47;99791.06;;;16.58;54.36
13593;BME280;6867;50.998;4.250;2023-03-24T09:50:20;99803.81;;;16.32;55.01
13593;BME280;6867;50.998;4.250;2023-03-24T09:52:52;99828.50;;;16.71;55.11
13593;BME280;6867;50.998;4.250;2023-03-24T09:55:23;99813.06;;;17.02;54.12
13593;BME280;6867;50.998;4.250;2023-03-24T09:57:52;99797.00;;;17.21;53.61
13593;BME280;6867;50.998;4.250;2023-03-24T10:00:21;99789.44;;;17.08;53.66
13593;BME280;6867;50.998;4.250;2023-03-24T10:02:50;99794.81;;;17.28;53.54
13593;BME280;6867;50.998;4.250;2023-03-24T10:05:21;99776.59;;;17.44;53.05
13593;BME280;6867;50.998;4.250;2023-03-24T10:07:53;99722.66;;;17.82;50.92
13593;BME280;6867;50.998;4.250;2023-03-24T10:10:29;99702.47;;;17.93;50.61
13593;BME280;6867;50.998;4.250;2023-03-24T10:13:01;99686.06;;;17.69;50.29
13593;BME280;6867;50.998;4.250;2023-03-24T10:15:35;99720.16;;;17.90;50.49
13593;BME280;6867;50.998;4.250;2023-03-24T10:18:19;99719.75;;;16.88;51.87
13593;BME280;6867;50.998;4.250;2023-03-24T10:20:51;99745.00;;;16.48;52.70
13593;BME280;6867;50.998;4.250;2023-03-24T10:23:28;99802.75;;;16.84;53.45
13593;BME280;6867;50.998;4.250;2023-03-24T10:26:04;99788.13;;;16.75;53.31
13593;BME280;6867;50.998;4.250;2023-03-24T10:28:39;99767.22;;;16.60;53.35
13593;BME280;6867;50.998;4.250;2023-03-24T10:31:10;99733.69;;;17.41;51.39
13593;BME280;6867;50.998;4.250;2023-03-24T10:33:40;99756.56;;;17.95;51.38
13593;BME280;6867;50.998;4.250;2023-03-24T10:36:10;99703.38;;;17.83;50.25
13593;BME280;6867;50.998;4.250;2023-03-24T10:38:39;99719.66;;;17.83;50.75
13593;BME280;6867;50.998;4.250;2023-03-24T10:41:12;99797.28;;;17.09;52.99
13593;BME280;6867;50.998;4.250;2023-03-24T10:43:42;99799.25;;;16.93;52.87
13593;BME280;6867;50.998;4.250;2023-03-24T10:46:11;99810.88;;;16.48;54.13
13593;BME280;6867;50.998;4.250;2023-03-24T10:48:42;99818.22;;;16.83;53.62
13593;BME280;6867;50.998;4.250;2023-03-24T10:51:15;99803.00;;;17.08;53.00
13593;BME280;6867;50.998;4.250;2023-03-24T10:53:43;99826.03;;;17.21;52.99
13593;BME280;6867;50.998;4.250;2023-03-24T10:56:15;99799.28;;;17.79;51.95
13593;BME280;6867;50.998;4.250;2023-03-24T10:58:43;99752.53;;;18.60;50.51
13593;BME280;6867;50.998;4.250;2023-03-24T11:01:22;99743.66;;;18.15;50.33
13593;BME280;6867;50.998;4.250;2023-03-24T11:03:50;99742.63;;;18.06;49.99
13593;BME280;6867;50.998;4.250;2023-03-24T11:06:19;99734.31;;;17.23;50.83
13593;BME280;6867;50.998;4.250;2023-03-24T11:08:46;99753.94;;;16.79;51.85
13593;BME280;6867;50.998;4.250;2023-03-24T11:11:30;99840.44;;;16.75;53.64
13593;BME280;6867;50.998;4.250;2023-03-24T11:13:57;99936.53;;;16.16;56.16
13593;BME280;6867;50.998;4.250;2023-03-24T11:16:27;99976.06;;;15.65;58.19
13593;BME280;6867;50.998;4.250;2023-03-24T11:18:58;100013.84;;;15.23;58.73
13593;BME280;6867;50.998;4.250;2023-03-24T11:21:26;100122.19;;;14.11;63.67
13593;BME280;6867;50.998;4.250;2023-03-24T11:23:56;100117.09;;;13.48;66.08
13593;BME280;6867;50.998;4.250;2023-03-24T11:26:30;100133.91;;;13.38;67.63
13593;BME280;6867;50.998;4.250;2023-03-24T11:29:00;100127.78;;;13.42;68.86
13593;BME280;6867;50.998;4.250;2023-03-24T11:31:29;100128.97;;;13.63;68.97
13593;BME280;6867;50.998;4.250;2023-03-24T11:33:58;100147.03;;;13.46;69.98
13593;BME280;6867;50.998;4.250;2023-03-24T11:36:46;100144.97;;;13.53;70.94
13593;BME280;6867;50.998;4.250;2023-03-24T11:39:17;100134.63;;;13.79;70.72
13593;BME280;6867;50.998;4.250;2023-03-24T11:41:54;100112.13;;;13.90;70.61
13593;BME280;6867;50.998;4.250;2023-03-24T11:44:24;100136.69;;;14.05;71.08
13593;BME280;6867;50.998;4.250;2023-03-24T11:46:54;100133.97;;;14.56;71.20
13593;BME280;6867;50.998;4.250;2023-03-24T11:49:26;100132.31;;;15.69;69.99
13593;BME280;6867;50.998;4.250;2023-03-24T11:51:55;100082.84;;;16.16;67.34
13593;BME280;6867;50.998;4.250;2023-03-24T11:54:25;100052.34;;;15.94;66.53
13593;BME280;6867;50.998;4.250;2023-03-24T11:56:56;100040.09;;;15.86;66.01
13593;BME280;6867;50.998;4.250;2023-03-24T11:59:32;100038.91;;;16.09;66.07
13593;BME280;6867;50.998;4.250;2023-03-24T12:02:09;100069.47;;;16.47;66.67
13593;BME280;6867;50.998;4.250;2023-03-24T12:05:02;100017.00;;;16.16;64.99
13593;BME280;6867;50.998;4.250;2023-03-24T12:10:38;100042.00;;;16.33;65.22
13593;BME280;6867;50.998;4.250;2023-03-24T12:13:11;100032.75;;;16.24;65.14
13593;BME280;6867;50.998;4.250;2023-03-24T12:15:45;100046.44;;;16.02;65.20
13593;BME280;6867;50.998;4.250;2023-03-24T12:18:34;100022.56;;;13.93;66.53
13593;BME280;6867;50.998;4.250;2023-03-24T12:21:09;100062.25;;;13.92;67.66
13593;BME280;6867;50.998;4.250;2023-03-24T12:23:45;100076.38;;;13.49;69.22
13593;BME280;6867;50.998;4.250;2023-03-24T12:26:17;100112.16;;;13.44;71.09
13593;BME280;6867;50.998;4.250;2023-03-24T12:29:14;100110.66;;;13.82;72.39
13593;BME280;6867;50.998;4.250;2023-03-24T12:32:02;100134.19;;;14.37;73.20
13593;BME280;6867;50.998;4.250;2023-03-24T12:34:55;100118.88;;;14.60;72.62
13593;BME280;6867;50.998;4.250;2023-03-24T12:37:32;100106.81;;;14.89;72.51
13593;BME280;6867;50.998;4.250;2023-03-24T12:40:19;100099.50;;;15.12;72.11
13593;BME280;6867;50.998;4.250;2023-03-24T12:42:54;100108.84;;;15.26;72.43
13593;BME280;6867;50.998;4.250;2023-03-24T12:45:33;100104.03;;;15.06;72.84
13593;BME280;6867;50.998;4.250;2023-03-24T12:48:22;100069.09;;;15.59;70.79
13593;BME280;6867;50.998;4.250;2023-03-24T12:51:03;100019.41;;;15.70;68.85
13593;BME280;6867;50.998;4.250;2023-03-24T12:53:39;99996.44;;;15.78;67.56
13593;BME280;6867;50.998;4.250;2023-03-24T12:56:12;99977.72;;;15.71;66.32
13593;BME280;6867;50.998;4.250;2023-03-24T12:58:43;99993.44;;;15.74;66.03
13593;BME280;6867;50.998;4.250;2023-03-24T13:01:18;99993.00;;;15.92;65.67
13593;BME280;6867;50.998;4.250;2023-03-24T13:03:51;100002.81;;;16.51;65.43
13593;BME280;6867;50.998;4.250;2023-03-24T13:06:22;99970.16;;;17.19;63.65
13593;BME280;6867;50.998;4.250;2023-03-24T13:09:03;99946.22;;;17.67;62.04
13593;BME280;6867;50.998;4.250;2023-03-24T13:11:37;99864.72;;;17.87;58.99
13593;BME280;6867;50.998;4.250;2023-03-24T13:14:11;99854.41;;;17.79;57.94
13593;BME280;6867;50.998;4.250;2023-03-24T13:16:42;99868.81;;;17.70;58.24
13593;BME280;6867;50.998;4.250;2023-03-24T13:19:17;99800.53;;;17.97;55.92
13593;BME280;6867;50.998;4.250;2023-03-24T13:21:45;99805.22;;;18.35;55.50
13593;BME280;6867;50.998;4.250;2023-03-24T13:24:16;99753.13;;;18.18;54.26
13593;BME280;6867;50.998;4.250;2023-03-24T13:26:48;99822.09;;;17.73;56.33
13593;BME280;6867;50.998;4.250;2023-03-24T13:32:12;99814.84;;;17.53;55.76
13593;BME280;6867;50.998;4.250;2023-03-24T13:34:43;99793.91;;;17.58;55.30
13593;BME280;6867;50.998;4.250;2023-03-24T13:37:15;99823.00;;;17.48;56.09
13593;BME280;6867;50.998;4.250;2023-03-24T13:39:47;99828.72;;;17.41;55.97
13593;BME280;6867;50.998;4.250;2023-03-24T13:42:29;99845.53;;;17.48;56.37
13593;BME280;6867;50.998;4.250;2023-03-24T13:44:58;99823.97;;;17.87;55.52